createdAt,value
2022-10-01T00:00:50.100Z,76.03
2022-10-01T00:03:18.074Z,75.59
2022-10-01T00:05:31.491Z,75.91
2022-10-01T00:07:47.289Z,76.09
2022-10-01T00:10:00.637Z,76.07
2022-10-01T00:12:17.057Z,76.37
2022-10-01T00:14:30.738Z,76.33
2022-10-01T00:16:44.333Z,76.65
2022-10-01T00:18:59.234Z,76.97
2022-10-01T00:21:17.210Z,77.15
2022-10-01T00:23:30.546Z,76.62
2022-10-01T00:25:44.886Z,76.61
2022-10-01T00:27:58.484Z,76.44
2022-10-01T00:30:14.027Z,76.51
2022-10-01T00:32:28.301Z,76.98
2022-10-01T00:34:41.663Z,76.91
2022-10-01T00:36:54.857Z,77.00
2022-10-01T00:39:08.313Z,77.14
2022-10-01T00:41:22.263Z,77.23
2022-10-01T00:43:37.904Z,77.30
2022-10-01T00:45:51.902Z,77.31
2022-10-01T00:48:05.888Z,77.32
2022-10-01T00:50:26.030Z,77.51
2022-10-01T00:52:43.050Z,77.48
2022-10-01T00:54:58.830Z,77.52
2022-10-01T00:57:12.856Z,77.72
2022-10-01T00:59:26.849Z,77.80
2022-10-01T01:01:42.972Z,78.01
2022-10-01T01:03:56.841Z,78.27
2022-10-01T01:06:11.119Z,78.30
2022-10-01T01:08:24.735Z,78.50
2022-10-01T01:10:45.772Z,78.62
2022-10-01T01:13:12.606Z,78.64
2022-10-01T01:15:33.275Z,78.75
2022-10-01T01:17:55.737Z,79.14
2022-10-01T01:20:27.633Z,79.19
2022-10-01T01:22:48.124Z,79.46
2022-10-01T01:25:04.793Z,79.59
2022-10-01T01:27:30.432Z,79.78
2022-10-01T01:29:47.673Z,79.96
2022-10-01T01:32:04.732Z,80.12
2022-10-01T01:34:21.525Z,80.22
2022-10-01T01:36:39.457Z,80.17
2022-10-01T01:38:56.287Z,80.45
2022-10-01T01:41:12.246Z,80.52
2022-10-01T01:43:30.286Z,80.54
2022-10-01T01:45:46.513Z,80.63
2022-10-01T01:48:02.324Z,80.64
2022-10-01T01:50:17.946Z,80.71
2022-10-01T01:52:31.321Z,80.97
2022-10-01T01:54:45.624Z,81.09
2022-10-01T01:56:59.610Z,81.18
2022-10-01T01:59:13.021Z,81.06
2022-10-01T02:01:45.752Z,81.09
2022-10-01T02:03:59.536Z,81.07
2022-10-01T02:06:22.867Z,81.02
2022-10-01T02:08:47.404Z,81.12
2022-10-01T02:11:29.791Z,81.22
2022-10-01T02:13:53.701Z,81.25
2022-10-01T02:16:20.302Z,81.35
2022-10-01T02:18:43.839Z,81.30
2022-10-01T02:21:00.792Z,81.28
2022-10-01T02:23:17.051Z,81.45
2022-10-01T02:25:33.068Z,81.76
2022-10-01T02:27:52.004Z,81.88
2022-10-01T02:30:09.595Z,81.92
2022-10-01T02:32:25.677Z,81.93
2022-10-01T02:34:39.870Z,82.08
2022-10-01T02:36:54.832Z,82.38
2022-10-01T02:39:10.181Z,82.57
2022-10-01T02:41:28.936Z,82.77
2022-10-01T02:43:52.871Z,82.86
2022-10-01T02:46:14.797Z,83.07
2022-10-01T02:48:28.713Z,83.17
2022-10-01T02:50:52.128Z,83.29
2022-10-01T02:53:09.939Z,83.45
2022-10-01T02:55:30.182Z,83.54
2022-10-01T02:57:43.781Z,83.78
2022-10-01T02:59:58.890Z,84.08
2022-10-01T03:02:12.799Z,84.31
2022-10-01T03:04:26.406Z,84.45
2022-10-01T03:06:40.083Z,84.71
2022-10-01T03:08:53.625Z,85.01
2022-10-01T03:11:09.826Z,85.18
2022-10-01T03:13:24.781Z,85.45
2022-10-01T03:15:38.131Z,85.72
2022-10-01T03:17:53.996Z,85.87
2022-10-01T03:20:07.733Z,85.83
2022-10-01T03:22:23.784Z,86.07
2022-10-01T03:24:37.403Z,86.29
2022-10-01T03:26:50.862Z,86.55
2022-10-01T03:29:04.142Z,86.84
2022-10-01T03:31:17.833Z,87.24
2022-10-01T03:33:31.219Z,87.36
2022-10-01T03:35:45.277Z,87.35
2022-10-01T03:37:58.674Z,87.46
2022-10-01T03:40:14.194Z,87.55
2022-10-01T03:42:27.469Z,87.60
2022-10-01T03:44:41.006Z,87.62
2022-10-01T03:46:54.473Z,87.73
2022-10-01T03:49:08.196Z,88.03
2022-10-01T03:51:22.087Z,88.08
2022-10-01T03:53:36.122Z,88.29
2022-10-01T03:55:49.312Z,88.32
2022-10-01T03:58:03.577Z,88.17
2022-10-01T04:00:19.499Z,88.14
2022-10-01T04:02:32.931Z,88.20
2022-10-01T04:04:46.449Z,88.42
2022-10-01T04:06:59.727Z,88.66
2022-10-01T04:09:13.332Z,88.71
2022-10-01T04:11:27.243Z,88.76
2022-10-01T04:13:40.923Z,89.30
2022-10-01T04:15:54.573Z,89.80
2022-10-01T04:18:08.150Z,89.92
2022-10-01T04:20:21.643Z,90.86
2022-10-01T04:22:35.094Z,91.11
2022-10-01T04:24:48.461Z,91.18
2022-10-01T04:27:01.588Z,91.37
2022-10-01T04:29:15.026Z,90.90
2022-10-01T04:31:36.152Z,91.24
2022-10-01T04:33:49.852Z,91.48
2022-10-01T04:36:03.135Z,91.43
2022-10-01T04:38:19.310Z,91.13
2022-10-01T04:40:32.949Z,90.85
2022-10-01T04:42:48.415Z,90.40
2022-10-01T04:45:01.901Z,90.14
2022-10-01T04:47:15.534Z,90.00
2022-10-01T04:49:29.108Z,89.93
2022-10-01T04:51:42.373Z,89.62
2022-10-01T04:53:55.714Z,89.50
2022-10-01T04:56:09.197Z,89.27
2022-10-01T04:58:22.468Z,89.01
2022-10-01T05:00:35.858Z,88.89
2022-10-01T05:02:50.396Z,88.76
2022-10-01T05:05:04.861Z,88.65
2022-10-01T05:07:18.172Z,88.62
2022-10-01T05:09:31.746Z,88.55
2022-10-01T05:11:44.936Z,88.43
2022-10-01T05:13:58.420Z,88.09
2022-10-01T05:16:12.993Z,87.98
2022-10-01T05:18:26.289Z,87.65
2022-10-01T05:20:39.698Z,87.33
2022-10-01T05:22:53.021Z,87.01
2022-10-01T05:25:06.318Z,86.63
2022-10-01T05:27:19.523Z,86.23
2022-10-01T05:29:32.993Z,86.05
2022-10-01T05:31:46.176Z,85.92
2022-10-01T05:33:59.438Z,85.68
2022-10-01T05:36:13.225Z,85.41
2022-10-01T05:38:26.539Z,84.98
2022-10-01T05:40:40.365Z,83.89
2022-10-01T05:42:54.438Z,83.70
2022-10-01T05:45:07.787Z,83.63
2022-10-01T05:47:21.904Z,83.48
2022-10-01T05:49:35.195Z,83.70
2022-10-01T05:51:48.550Z,83.77
2022-10-01T05:54:02.443Z,83.44
2022-10-01T05:56:16.110Z,83.35
2022-10-01T05:58:29.365Z,83.27
2022-10-01T06:00:43.431Z,83.13
2022-10-01T06:02:59.012Z,83.11
2022-10-01T06:05:12.946Z,82.82
2022-10-01T06:07:26.281Z,82.58
2022-10-01T06:09:39.757Z,82.49
2022-10-01T06:11:53.162Z,82.81
2022-10-01T06:14:06.779Z,82.91
2022-10-01T06:16:20.517Z,82.99
2022-10-01T06:18:33.812Z,82.63
2022-10-01T06:20:47.418Z,82.66
2022-10-01T06:23:06.991Z,82.29
2022-10-01T06:25:20.611Z,82.32
2022-10-01T06:27:33.859Z,82.51
2022-10-01T06:29:47.099Z,82.31
2022-10-01T06:32:00.628Z,82.59
2022-10-01T06:34:13.925Z,82.57
2022-10-01T06:36:27.277Z,82.69
2022-10-01T06:38:40.608Z,82.65
2022-10-01T06:40:57.820Z,82.66
2022-10-01T06:43:11.428Z,82.16
2022-10-01T06:45:25.141Z,81.99
2022-10-01T06:47:39.098Z,81.33
2022-10-01T06:49:52.235Z,81.20
2022-10-01T06:52:21.641Z,81.15
2022-10-01T06:54:34.859Z,80.92
2022-10-01T06:56:48.262Z,80.57
2022-10-01T06:59:01.580Z,80.38
2022-10-01T07:01:15.733Z,80.47
2022-10-01T07:03:28.945Z,80.23
2022-10-01T07:05:42.486Z,79.51
2022-10-01T07:07:56.055Z,79.58
2022-10-01T07:10:11.518Z,79.18
2022-10-01T07:12:24.618Z,79.21
2022-10-01T07:14:37.969Z,78.57
2022-10-01T07:16:51.840Z,78.54
2022-10-01T07:19:05.071Z,78.50
2022-10-01T07:21:18.442Z,78.48
2022-10-01T07:23:31.695Z,78.41
2022-10-01T07:25:46.155Z,78.17
2022-10-01T07:28:03.547Z,77.82
2022-10-01T07:30:18.468Z,77.61
2022-10-01T07:32:32.821Z,77.48
2022-10-01T07:34:46.028Z,77.48
2022-10-01T07:36:59.157Z,77.67
2022-10-01T07:39:12.379Z,77.40
2022-10-01T07:41:26.664Z,77.46
2022-10-01T07:43:40.633Z,77.47
2022-10-01T07:45:56.324Z,77.31
2022-10-01T07:48:10.714Z,77.17
2022-10-01T07:50:24.053Z,77.12
2022-10-01T07:52:37.280Z,77.07
2022-10-01T07:54:50.962Z,77.07
2022-10-01T07:57:04.140Z,77.04
2022-10-01T07:59:17.940Z,76.71
2022-10-01T08:01:33.118Z,76.19
2022-10-01T08:03:46.508Z,76.04
2022-10-01T08:05:59.668Z,76.27
2022-10-01T08:08:13.609Z,76.43
2022-10-01T08:10:27.983Z,76.59
2022-10-01T08:12:41.322Z,76.99
2022-10-01T08:14:55.030Z,77.58
2022-10-01T08:17:08.272Z,77.85
2022-10-01T08:19:21.534Z,78.03
2022-10-01T08:21:37.054Z,77.90
2022-10-01T08:23:50.364Z,77.68
2022-10-01T08:26:08.657Z,77.47
2022-10-01T08:28:21.894Z,77.19
2022-10-01T08:30:35.738Z,77.23
2022-10-01T08:32:49.028Z,77.18
2022-10-01T08:35:02.486Z,77.02
2022-10-01T08:37:15.870Z,76.87
2022-10-01T08:39:29.111Z,76.87
2022-10-01T08:41:54.620Z,76.55
2022-10-01T08:44:09.560Z,76.55
2022-10-01T08:46:27.297Z,76.45
2022-10-01T08:48:57.343Z,76.30
2022-10-01T08:51:16.814Z,76.06
2022-10-01T08:53:38.531Z,75.83
2022-10-01T08:55:54.735Z,75.68
2022-10-01T08:58:10.423Z,75.54
2022-10-01T09:00:24.993Z,75.58
2022-10-01T09:02:39.298Z,75.61
2022-10-01T09:05:00.304Z,75.53
2022-10-01T09:07:30.924Z,75.69
2022-10-01T09:09:52.036Z,75.77
2022-10-01T09:12:21.023Z,75.94
2022-10-01T09:14:47.918Z,76.11
2022-10-01T09:17:12.071Z,76.21
2022-10-01T09:19:40.938Z,76.40
2022-10-01T09:22:03.427Z,76.51
2022-10-01T09:24:19.845Z,76.95
2022-10-01T09:26:33.126Z,77.59
2022-10-01T09:28:48.617Z,77.64
2022-10-01T09:31:07.196Z,78.04
2022-10-01T09:33:23.568Z,78.39
2022-10-01T09:35:46.492Z,78.41
2022-10-01T09:38:04.584Z,78.76
2022-10-01T09:40:27.073Z,78.80
2022-10-01T09:42:40.289Z,78.86
2022-10-01T09:44:55.215Z,78.87
2022-10-01T09:47:16.698Z,78.79
2022-10-01T09:49:36.674Z,78.83
2022-10-01T09:51:54.364Z,78.82
2022-10-01T09:54:16.540Z,78.94
2022-10-01T09:56:33.533Z,79.01
2022-10-01T09:58:51.338Z,79.06
2022-10-01T10:01:05.367Z,79.42
2022-10-01T10:03:29.954Z,79.55
2022-10-01T10:05:50.564Z,79.54
2022-10-01T10:08:07.938Z,79.63
2022-10-01T10:10:27.558Z,79.93
2022-10-01T10:12:41.180Z,79.81
2022-10-01T10:14:54.413Z,79.95
2022-10-01T10:17:15.206Z,80.09
2022-10-01T10:19:30.904Z,80.68
2022-10-01T10:21:53.329Z,80.28
2022-10-01T10:24:09.628Z,79.98
2022-10-01T10:26:29.810Z,80.54
2022-10-01T10:28:49.348Z,80.62
2022-10-01T10:31:03.665Z,80.41
2022-10-01T10:33:22.041Z,79.87
2022-10-01T10:35:35.578Z,79.50
2022-10-01T10:37:53.347Z,79.62
2022-10-01T10:40:09.688Z,79.16
2022-10-01T10:42:24.237Z,79.02
2022-10-01T10:44:40.863Z,78.81
2022-10-01T10:46:55.975Z,78.42
2022-10-01T10:49:15.744Z,78.22
2022-10-01T10:51:29.675Z,78.17
2022-10-01T10:53:52.431Z,78.18
2022-10-01T10:56:07.456Z,78.60
2022-10-01T10:58:21.360Z,78.96
2022-10-01T11:00:34.689Z,79.08
2022-10-01T11:02:57.462Z,79.27
2022-10-01T11:05:21.253Z,80.07
2022-10-01T11:07:35.738Z,80.18
2022-10-01T11:10:02.467Z,80.21
2022-10-01T11:12:27.394Z,80.11
2022-10-01T11:14:57.051Z,79.60
2022-10-01T11:17:43.491Z,79.05
2022-10-01T11:20:07.157Z,78.73
2022-10-01T11:22:39.648Z,78.14
2022-10-01T11:25:17.757Z,78.09
2022-10-01T11:27:38.388Z,77.90
2022-10-01T11:30:02.817Z,77.33
2022-10-01T11:32:26.663Z,77.12
2022-10-01T11:35:04.844Z,76.79
2022-10-01T11:37:33.031Z,76.68
2022-10-01T11:39:52.052Z,76.36
2022-10-01T11:42:09.068Z,76.53
2022-10-01T11:44:27.875Z,76.92
2022-10-01T11:46:54.688Z,77.21
2022-10-01T11:49:25.634Z,77.26
2022-10-01T11:51:43.369Z,76.97
2022-10-01T11:54:01.625Z,76.66
2022-10-01T11:56:43.211Z,76.11
2022-10-01T11:58:59.367Z,75.75
2022-10-01T12:01:18.275Z,75.59
2022-10-01T12:03:38.777Z,75.63
2022-10-01T12:05:52.984Z,75.60
2022-10-01T12:08:13.382Z,75.45
2022-10-01T12:10:40.582Z,75.48
2022-10-01T12:13:00.591Z,75.67
2022-10-01T12:15:21.292Z,75.85
2022-10-01T12:17:42.438Z,75.97
2022-10-01T12:19:58.551Z,76.26
2022-10-01T12:22:16.578Z,76.29
2022-10-01T12:24:35.323Z,76.49
2022-10-01T12:26:58.680Z,76.74
2022-10-01T12:29:18.054Z,76.99
2022-10-01T12:31:39.201Z,77.33
2022-10-01T12:34:13.571Z,77.79
2022-10-01T12:36:39.321Z,78.44
2022-10-01T12:39:04.997Z,78.68
2022-10-01T12:41:31.101Z,78.95
2022-10-01T12:44:04.596Z,79.07
2022-10-01T12:46:26.876Z,78.82
2022-10-01T12:48:48.808Z,78.57
2022-10-01T12:51:16.191Z,78.51
2022-10-01T12:53:42.329Z,78.40
2022-10-01T12:56:06.005Z,78.12
2022-10-01T12:58:34.414Z,78.33
2022-10-01T13:00:55.291Z,78.34
2022-10-01T13:03:42.676Z,78.16
2022-10-01T13:06:12.187Z,78.17
2022-10-01T13:08:44.120Z,78.68
2022-10-01T13:11:07.998Z,78.72
2022-10-01T13:13:26.389Z,78.08
2022-10-01T13:15:42.878Z,77.93
2022-10-01T13:18:01.098Z,77.69
2022-10-01T13:20:23.469Z,77.72
2022-10-01T13:22:44.739Z,77.74
2022-10-01T13:25:04.620Z,77.50
2022-10-01T13:27:24.377Z,76.78
2022-10-01T13:29:47.645Z,76.43
2022-10-01T13:32:02.776Z,76.25
2022-10-01T13:34:42.014Z,75.65
2022-10-01T13:36:55.439Z,75.06
2022-10-01T13:39:08.972Z,74.52
2022-10-01T13:41:28.820Z,74.12
2022-10-01T13:43:45.259Z,73.91
2022-10-01T13:46:00.055Z,73.61
2022-10-01T13:48:20.578Z,73.17
2022-10-01T13:50:34.192Z,72.85
2022-10-01T13:52:47.551Z,72.62
2022-10-01T13:55:02.229Z,72.13
2022-10-01T13:57:34.217Z,72.16
2022-10-01T13:59:47.568Z,71.96
2022-10-01T14:02:01.019Z,71.28
2022-10-01T14:04:25.502Z,71.32
2022-10-01T14:06:47.049Z,71.20
2022-10-01T14:09:07.418Z,71.31
2022-10-01T14:11:41.869Z,70.72
2022-10-01T14:14:12.326Z,70.65
2022-10-01T14:16:25.693Z,70.77
2022-10-01T14:18:43.102Z,70.38
2022-10-01T14:21:03.860Z,70.60
2022-10-01T14:23:19.896Z,70.07
2022-10-01T14:25:49.250Z,70.36
2022-10-01T14:28:18.995Z,69.79
2022-10-01T14:30:41.962Z,69.89
2022-10-01T14:33:21.864Z,69.77
2022-10-01T14:35:40.337Z,69.21
2022-10-01T14:37:54.004Z,69.18
2022-10-01T14:40:20.161Z,68.95
2022-10-01T14:42:33.407Z,69.12
2022-10-01T14:44:48.646Z,68.69
2022-10-01T14:47:03.403Z,68.35
2022-10-01T14:49:27.741Z,68.14
2022-10-01T14:51:52.805Z,68.40
2022-10-01T14:54:06.880Z,68.32
2022-10-01T14:56:20.595Z,68.15
2022-10-01T14:58:37.538Z,68.36
2022-10-01T15:00:55.599Z,68.21
2022-10-01T15:03:18.156Z,68.50
2022-10-01T15:05:29.863Z,68.51
2022-10-01T15:07:43.092Z,68.22
2022-10-01T15:09:56.571Z,68.17
2022-10-01T15:12:11.475Z,68.50
2022-10-01T15:14:28.336Z,68.48
2022-10-01T15:16:42.318Z,68.08
2022-10-01T15:18:58.571Z,68.07
2022-10-01T15:21:19.030Z,68.02
2022-10-01T15:23:34.252Z,68.08
2022-10-01T15:25:50.417Z,67.98
2022-10-01T15:28:03.842Z,68.00
2022-10-01T15:30:21.975Z,68.16
2022-10-01T15:32:35.419Z,68.33
2022-10-01T15:34:51.510Z,68.11
2022-10-01T15:37:05.601Z,68.26
2022-10-01T15:39:33.108Z,68.21
2022-10-01T15:41:48.098Z,68.14
2022-10-01T15:44:02.445Z,68.03
2022-10-01T15:46:34.205Z,67.70
2022-10-01T15:48:48.418Z,67.89
2022-10-01T15:51:05.919Z,67.70
2022-10-01T15:53:25.374Z,67.26
2022-10-01T15:55:44.548Z,67.38
2022-10-01T15:58:05.045Z,67.49
2022-10-01T16:00:29.268Z,67.03
2022-10-01T16:02:42.546Z,66.82
2022-10-01T16:04:57.963Z,66.79
2022-10-01T16:07:21.349Z,66.73
2022-10-01T16:09:35.336Z,66.55
2022-10-01T16:12:03.502Z,66.68
2022-10-01T16:14:31.846Z,67.08
2022-10-01T16:16:45.235Z,67.02
2022-10-01T16:19:03.323Z,66.83
2022-10-01T16:21:17.184Z,66.72
2022-10-01T16:23:50.930Z,66.85
2022-10-01T16:26:04.426Z,66.74
2022-10-01T16:28:30.833Z,66.55
2022-10-01T16:30:44.188Z,66.27
2022-10-01T16:32:57.753Z,66.14
2022-10-01T16:35:25.312Z,66.03
2022-10-01T16:37:38.665Z,66.06
2022-10-01T16:39:52.005Z,66.14
2022-10-01T16:42:22.670Z,65.68
2022-10-01T16:44:37.848Z,65.47
2022-10-01T16:46:51.263Z,65.59
2022-10-01T16:49:04.537Z,65.47
2022-10-01T16:51:18.626Z,65.14
2022-10-01T16:53:31.966Z,64.73
2022-10-01T16:55:46.094Z,63.71
2022-10-01T16:57:59.524Z,63.81
2022-10-01T17:00:14.501Z,63.85
2022-10-01T17:02:27.929Z,63.78
2022-10-01T17:04:41.245Z,63.51
2022-10-01T17:06:55.093Z,62.53
2022-10-01T17:09:08.307Z,62.28
2022-10-01T17:11:22.086Z,61.47
2022-10-01T17:13:36.637Z,61.84
2022-10-01T17:15:51.612Z,61.63
2022-10-01T17:18:05.303Z,61.82
2022-10-01T17:20:18.900Z,60.91
2022-10-01T17:22:32.932Z,60.15
2022-10-01T17:24:46.160Z,59.85
2022-10-01T17:26:59.396Z,58.74
2022-10-01T17:29:12.984Z,60.11
2022-10-01T17:31:28.548Z,59.14
2022-10-01T17:33:41.844Z,59.92
2022-10-01T17:35:56.854Z,59.61
2022-10-01T17:38:10.875Z,59.95
2022-10-01T17:40:24.710Z,60.00
2022-10-01T17:42:38.072Z,59.55
2022-10-01T17:44:51.425Z,59.76
2022-10-01T17:47:04.813Z,60.09
2022-10-01T17:49:18.090Z,59.90
2022-10-01T17:51:31.441Z,59.57
2022-10-01T17:53:44.877Z,59.66
2022-10-01T17:55:58.314Z,59.91
2022-10-01T17:58:11.537Z,58.28
2022-10-01T18:00:25.061Z,57.10
2022-10-01T18:02:42.154Z,57.06
2022-10-01T18:04:56.091Z,57.04
2022-10-01T18:07:09.899Z,57.42
2022-10-01T18:09:23.310Z,57.77
2022-10-01T18:11:37.163Z,57.67
2022-10-01T18:13:50.688Z,57.51
2022-10-01T18:16:10.199Z,57.57
2022-10-01T18:19:48.617Z,56.57
2022-10-01T18:20:57.074Z,56.67
2022-10-01T18:23:10.303Z,56.24
2022-10-01T18:25:23.800Z,55.73
2022-10-01T18:27:37.234Z,56.23
2022-10-01T18:29:50.500Z,56.13
2022-10-01T18:32:10.690Z,54.96
2022-10-01T18:34:29.839Z,53.77
2022-10-01T18:36:52.449Z,50.99
2022-10-01T18:39:17.689Z,50.51
2022-10-01T18:41:46.750Z,52.09
2022-10-01T18:44:00.052Z,52.83
2022-10-01T18:46:24.891Z,52.82
2022-10-01T18:49:03.541Z,50.84
2022-10-01T18:51:29.871Z,51.11
2022-10-01T18:53:59.918Z,50.05
2022-10-01T18:56:30.181Z,50.56
2022-10-01T18:59:09.882Z,49.60
2022-10-01T19:01:31.468Z,49.73
2022-10-01T19:04:11.623Z,48.19
2022-10-01T19:06:44.486Z,48.96
2022-10-01T19:09:10.906Z,48.79
2022-10-01T19:11:29.430Z,48.27
2022-10-01T19:13:52.182Z,48.78
2022-10-01T19:16:17.799Z,48.90
2022-10-01T19:18:50.155Z,47.84
2022-10-01T19:21:14.336Z,47.53
2022-10-01T19:23:43.395Z,47.42
2022-10-01T19:25:59.627Z,47.72
2022-10-01T19:28:23.832Z,46.39
2022-10-01T19:30:44.544Z,45.77
2022-10-01T19:33:06.825Z,45.71
2022-10-01T19:35:24.258Z,45.17
2022-10-01T19:37:44.779Z,44.62
2022-10-01T19:40:01.620Z,45.08
2022-10-01T19:42:22.290Z,44.79
2022-10-01T19:44:45.459Z,44.89
2022-10-01T19:47:04.638Z,45.02
2022-10-01T19:49:25.079Z,45.35
2022-10-01T19:51:42.020Z,44.49
2022-10-01T19:54:02.111Z,44.30
2022-10-01T19:56:21.258Z,42.80
2022-10-01T19:58:35.679Z,43.10
2022-10-01T20:00:50.395Z,43.46
2022-10-01T20:03:14.146Z,44.31
2022-10-01T20:05:33.257Z,44.77
2022-10-01T20:07:59.038Z,44.53
2022-10-01T20:10:22.808Z,44.78
2022-10-01T20:12:46.150Z,43.49
2022-10-01T20:15:14.610Z,42.61
2022-10-01T20:17:34.325Z,41.35
2022-10-01T20:19:54.703Z,40.52
2022-10-01T20:22:14.901Z,40.14
2022-10-01T20:24:44.523Z,39.85
2022-10-01T20:27:06.162Z,40.83
2022-10-01T20:29:33.445Z,39.05
2022-10-01T20:31:56.327Z,40.74
2022-10-01T20:34:22.583Z,40.72
2022-10-01T20:36:42.619Z,41.78
2022-10-01T20:39:05.607Z,41.48
2022-10-01T20:41:22.727Z,41.95
2022-10-01T20:43:45.979Z,42.22
2022-10-01T20:46:01.068Z,41.36
2022-10-01T20:48:23.212Z,41.84
2022-10-01T20:50:41.022Z,41.48
2022-10-01T20:53:06.567Z,40.90
2022-10-01T20:55:27.791Z,39.30
2022-10-01T20:57:48.242Z,38.11
2022-10-01T21:00:06.476Z,39.05
2022-10-01T21:02:36.165Z,37.96
2022-10-01T21:04:55.565Z,38.35
2022-10-01T21:07:31.308Z,38.01
2022-10-01T21:09:49.930Z,37.05
2022-10-01T21:12:10.626Z,37.79
2022-10-01T21:14:29.774Z,38.44
2022-10-01T21:17:06.448Z,37.89
2022-10-01T21:19:32.425Z,35.38
2022-10-01T21:21:56.202Z,36.76
2022-10-01T21:24:22.652Z,36.48
2022-10-01T21:26:48.099Z,37.79
2022-10-01T21:29:23.329Z,37.64
2022-10-01T21:31:46.285Z,37.10
2022-10-01T21:34:05.560Z,36.53
2022-10-01T21:36:25.059Z,37.75
2022-10-01T21:38:48.009Z,37.31
2022-10-01T21:41:14.639Z,38.21
2022-10-01T21:43:40.259Z,38.41
2022-10-01T21:46:03.463Z,37.21
2022-10-01T21:48:38.287Z,38.17
2022-10-01T21:51:09.832Z,36.43
2022-10-01T21:53:50.760Z,36.76
2022-10-01T21:56:20.909Z,37.00
2022-10-01T21:58:49.868Z,36.66
2022-10-01T22:01:11.650Z,36.80
2022-10-01T22:03:32.565Z,37.61
2022-10-01T22:05:51.352Z,35.58
2022-10-01T22:08:16.367Z,35.90
2022-10-01T22:10:37.875Z,36.90
2022-10-01T22:12:56.430Z,37.54
2022-10-01T22:15:18.843Z,37.56
2022-10-01T22:17:35.570Z,36.21
2022-10-01T22:19:52.515Z,36.25
2022-10-01T22:22:12.817Z,36.57
2022-10-01T22:24:35.457Z,36.48
2022-10-01T22:26:55.095Z,37.01
2022-10-01T22:29:11.286Z,35.94
2022-10-01T22:31:29.738Z,35.64
2022-10-01T22:33:49.242Z,36.72
2022-10-01T22:36:09.827Z,35.91
2022-10-01T22:38:29.807Z,34.39
2022-10-01T22:40:48.578Z,35.56
2022-10-01T22:43:09.703Z,34.58
2022-10-01T22:45:27.046Z,33.72
2022-10-01T22:48:02.228Z,34.95
2022-10-01T22:50:26.373Z,35.49
2022-10-01T22:52:47.304Z,34.88
2022-10-01T22:55:13.493Z,34.56
2022-10-01T22:57:46.720Z,35.05
2022-10-01T23:00:06.637Z,35.03
2022-10-01T23:02:28.223Z,34.86
2022-10-01T23:04:53.888Z,34.21
2022-10-01T23:07:17.297Z,33.85
2022-10-01T23:09:35.912Z,35.10
2022-10-01T23:11:59.697Z,35.16
2022-10-01T23:14:25.727Z,35.50
2022-10-01T23:16:47.762Z,35.15
2022-10-01T23:19:10.803Z,33.42
2022-10-01T23:21:35.774Z,34.06
2022-10-01T23:23:57.749Z,34.78
2022-10-01T23:26:30.917Z,35.04
2022-10-01T23:28:55.099Z,35.32
2022-10-01T23:31:19.062Z,34.98
2022-10-01T23:33:53.115Z,35.14
2022-10-01T23:36:18.504Z,35.30
2022-10-01T23:38:54.670Z,35.26
2022-10-01T23:41:13.501Z,34.78
2022-10-01T23:43:35.900Z,35.26
2022-10-01T23:45:53.094Z,35.53
2022-10-01T23:48:14.208Z,34.40
2022-10-01T23:50:36.851Z,35.50
2022-10-01T23:52:55.660Z,35.28
2022-10-01T23:55:33.870Z,35.33
2022-10-01T23:57:47.782Z,34.43
